createdAt,value
2023-02-15T00:00:14.926Z,102126.00
2023-02-15T00:02:16.491Z,102116.56
2023-02-15T00:04:19.932Z,102116.34
2023-02-15T00:06:21.779Z,102119.63
2023-02-15T00:08:23.829Z,102120.25
2023-02-15T00:10:25.425Z,102114.91
2023-02-15T00:12:28.396Z,102118.41
2023-02-15T00:14:30.103Z,102119.22
2023-02-15T00:16:31.939Z,102116.97
2023-02-15T00:18:34.248Z,102124.16
2023-02-15T00:20:36.950Z,102120.03
2023-02-15T00:22:38.479Z,102101.53
2023-02-15T00:24:40.021Z,102114.91
2023-02-15T00:26:42.747Z,102105.63
2023-02-15T00:28:45.631Z,102112.22
2023-02-15T00:30:47.193Z,102111.81
2023-02-15T00:32:48.877Z,102107.06
2023-02-15T00:34:50.670Z,102108.09
2023-02-15T00:36:55.620Z,102107.28
2023-02-15T00:38:57.329Z,102109.75
2023-02-15T00:41:00.984Z,102101.94
2023-02-15T00:43:02.550Z,102108.53
2023-02-15T00:45:06.193Z,102101.72
2023-02-15T00:47:07.712Z,102093.91
2023-02-15T00:49:09.302Z,102097.63
2023-02-15T00:51:10.831Z,102093.69
2023-02-15T00:53:12.812Z,102093.50
2023-02-15T00:55:14.478Z,102099.44
2023-02-15T00:57:15.985Z,102094.72
2023-02-15T00:59:17.567Z,102096.78
2023-02-15T01:01:21.663Z,102099.19
2023-02-15T01:03:23.219Z,102102.25
2023-02-15T01:05:24.974Z,102095.69
2023-02-15T01:07:26.581Z,102096.50
2023-02-15T01:09:28.162Z,102098.50
2023-02-15T01:11:29.698Z,102097.06
2023-02-15T01:13:31.373Z,102098.06
2023-02-15T01:15:35.570Z,102097.72
2023-02-15T01:17:38.556Z,102098.78
2023-02-15T01:19:40.134Z,102091.38
2023-02-15T01:21:41.683Z,102101.03
2023-02-15T01:23:43.464Z,102088.28
2023-02-15T01:25:45.109Z,102089.16
2023-02-15T01:27:47.059Z,102089.56
2023-02-15T01:29:48.669Z,102090.00
2023-02-15T01:31:50.332Z,102087.53
2023-02-15T01:33:53.296Z,102084.84
2023-02-15T01:35:58.035Z,102085.06
2023-02-15T01:37:59.614Z,102081.38
2023-02-15T01:40:01.714Z,102078.69
2023-02-15T01:42:03.628Z,102078.69
2023-02-15T01:44:38.652Z,102077.22
2023-02-15T01:46:50.099Z,102067.78
2023-02-15T01:48:55.907Z,102067.78
2023-02-15T01:51:02.456Z,102073.09
2023-02-15T01:53:09.678Z,102074.75
2023-02-15T01:55:11.497Z,102074.16
2023-02-15T01:57:17.646Z,102074.56
2023-02-15T01:59:22.858Z,102074.56
2023-02-15T02:01:26.767Z,102079.69
2023-02-15T02:03:39.614Z,102081.34
2023-02-15T02:05:43.290Z,102071.69
2023-02-15T02:07:46.558Z,102067.16
2023-02-15T02:09:48.825Z,102072.09
2023-02-15T02:11:50.660Z,102065.50
2023-02-15T02:13:54.587Z,102063.84
2023-02-15T02:16:05.454Z,102060.34
2023-02-15T02:18:22.583Z,102056.44
2023-02-15T02:20:36.090Z,102059.50
2023-02-15T02:23:10.402Z,102058.50
2023-02-15T02:25:43.427Z,102056.03
2023-02-15T02:27:50.322Z,102057.47
2023-02-15T02:30:24.484Z,102056.25
2023-02-15T02:33:16.751Z,102051.91
2023-02-15T02:35:27.715Z,102052.31
2023-02-15T02:37:38.146Z,102042.44
2023-02-15T02:39:50.046Z,102039.38
2023-02-15T02:41:57.314Z,102034.66
2023-02-15T02:44:05.844Z,102039.19
2023-02-15T02:46:14.103Z,102036.91
2023-02-15T02:48:20.452Z,102040.00
2023-02-15T02:50:27.213Z,102035.66
2023-02-15T02:52:43.550Z,102031.94
2023-02-15T02:54:45.227Z,102027.81
2023-02-15T02:56:50.530Z,102031.50
2023-02-15T02:58:57.701Z,102029.63
2023-02-15T03:01:04.603Z,102026.16
2023-02-15T03:03:10.801Z,102019.94
2023-02-15T03:05:16.546Z,102023.06
2023-02-15T03:07:23.629Z,102018.34
2023-02-15T03:09:30.731Z,102022.69
2023-02-15T03:11:32.253Z,102011.81
2023-02-15T03:13:34.913Z,102017.50
2023-02-15T03:15:39.939Z,102011.06
2023-02-15T03:17:45.807Z,102010.44
2023-02-15T03:19:51.166Z,102014.78
2023-02-15T03:21:56.967Z,102018.44
2023-02-15T03:24:04.132Z,102014.53
2023-02-15T03:26:08.555Z,102013.50
2023-02-15T03:28:13.890Z,102019.88
2023-02-15T03:30:19.611Z,102022.31
2023-02-15T03:32:22.728Z,102025.00
2023-02-15T03:34:24.680Z,102022.13
2023-02-15T03:36:37.206Z,102022.28
2023-02-15T03:38:49.848Z,102030.97
2023-02-15T03:40:57.729Z,102039.03
2023-02-15T03:43:04.456Z,102042.97
2023-02-15T03:45:10.847Z,102040.16
2023-02-15T03:47:16.230Z,102040.75
2023-02-15T03:49:24.001Z,102039.13
2023-02-15T03:51:30.645Z,102043.00
2023-02-15T03:53:32.293Z,102033.47
2023-02-15T03:55:34.943Z,102033.50
2023-02-15T03:57:38.424Z,102039.28
2023-02-15T03:59:39.976Z,102025.94
2023-02-15T04:01:49.132Z,102027.81
2023-02-15T04:03:57.164Z,102026.97
2023-02-15T04:05:58.732Z,102024.91
2023-02-15T04:08:00.360Z,102025.94
2023-02-15T04:10:04.303Z,102017.06
2023-02-15T04:12:06.048Z,102024.66
2023-02-15T04:14:08.953Z,102027.50
2023-02-15T04:16:10.732Z,102020.69
2023-02-15T04:18:12.312Z,102019.47
2023-02-15T04:20:14.025Z,102027.25
2023-02-15T04:22:15.580Z,102028.28
2023-02-15T04:24:17.281Z,102019.03
2023-02-15T04:26:21.507Z,102021.72
2023-02-15T04:28:23.056Z,102009.22
2023-02-15T04:30:26.698Z,102013.34
2023-02-15T04:32:28.296Z,102008.88
2023-02-15T04:34:29.934Z,102015.41
2023-02-15T04:36:31.484Z,102010.28
2023-02-15T04:38:32.987Z,102003.09
2023-02-15T04:40:34.581Z,101998.56
2023-02-15T04:42:36.236Z,102003.75
2023-02-15T04:44:37.788Z,102003.34
2023-02-15T04:46:40.768Z,101993.88
2023-02-15T04:48:42.370Z,102002.53
2023-02-15T04:50:44.014Z,101998.19
2023-02-15T04:52:45.723Z,101997.38
2023-02-15T04:54:47.404Z,102002.28
2023-02-15T04:56:48.941Z,101991.81
2023-02-15T04:58:50.743Z,102000.69
2023-02-15T05:00:55.987Z,101995.13
2023-02-15T05:02:58.910Z,101993.00
2023-02-15T05:05:00.522Z,101984.78
2023-02-15T05:07:02.114Z,101987.56
2023-02-15T05:09:03.848Z,102001.56
2023-02-15T05:11:05.420Z,101998.06
2023-02-15T05:13:07.031Z,101992.09
2023-02-15T05:15:09.579Z,101992.28
2023-02-15T05:17:13.535Z,101993.97
2023-02-15T05:19:16.600Z,101999.56
2023-02-15T05:21:18.170Z,101992.75
2023-02-15T05:23:19.729Z,101994.59
2023-02-15T05:25:21.240Z,101991.28
2023-02-15T05:27:22.744Z,101986.94
2023-02-15T05:29:24.365Z,101992.28
2023-02-15T05:31:26.367Z,101987.28
2023-02-15T05:33:28.289Z,101992.81
2023-02-15T05:35:31.496Z,101993.22
2023-02-15T05:37:33.258Z,102001.22
2023-02-15T05:39:34.823Z,101993.88
2023-02-15T05:41:36.559Z,101994.31
2023-02-15T05:43:39.169Z,102002.53
2023-02-15T05:45:40.752Z,102000.34
2023-02-15T05:47:42.735Z,102005.25
2023-02-15T05:49:44.290Z,102005.50
2023-02-15T05:51:47.299Z,101998.44
2023-02-15T05:53:48.861Z,101994.94
2023-02-15T05:55:50.342Z,101998.66
2023-02-15T05:57:51.873Z,102004.63
2023-02-15T05:59:53.577Z,102007.06
2023-02-15T06:01:55.073Z,102000.44
2023-02-15T06:03:56.755Z,102008.00
2023-02-15T06:05:58.341Z,102006.81
2023-02-15T06:08:10.928Z,102006.16
2023-02-15T06:10:12.977Z,102006.50
2023-02-15T06:12:14.536Z,102005.81
2023-02-15T06:14:16.321Z,102008.06
2023-02-15T06:16:17.851Z,102016.41
2023-02-15T06:18:19.418Z,102009.19
2023-02-15T06:20:20.982Z,102005.91
2023-02-15T06:22:22.582Z,102006.28
2023-02-15T06:24:25.560Z,102004.28
2023-02-15T06:26:27.210Z,102003.66
2023-02-15T06:28:28.764Z,101999.75
2023-02-15T06:30:30.519Z,102002.84
2023-02-15T06:32:32.315Z,102013.16
2023-02-15T06:34:33.929Z,102017.31
2023-02-15T06:36:35.828Z,102025.38
2023-02-15T06:38:37.397Z,102028.06
2023-02-15T06:40:40.301Z,102034.00
2023-02-15T06:42:42.423Z,102036.91
2023-02-15T06:44:44.030Z,102041.81
2023-02-15T06:46:45.628Z,102041.00
2023-02-15T06:48:47.330Z,102036.94
2023-02-15T06:50:48.913Z,102039.81
2023-02-15T06:52:50.475Z,102033.44
2023-02-15T06:54:52.106Z,102044.09
2023-02-15T06:56:55.233Z,102039.97
2023-02-15T06:58:56.791Z,102030.91
2023-02-15T07:00:58.351Z,102036.69
2023-02-15T07:03:00.567Z,102041.25
2023-02-15T07:05:02.262Z,102037.31
2023-02-15T07:07:04.144Z,102038.94
2023-02-15T07:09:05.642Z,102037.47
2023-02-15T07:11:07.941Z,102038.28
2023-02-15T07:13:10.909Z,102035.66
2023-02-15T07:15:15.085Z,102035.69
2023-02-15T07:17:35.029Z,102035.50
2023-02-15T07:19:37.264Z,102037.97
2023-02-15T07:21:39.095Z,102037.50
2023-02-15T07:23:41.236Z,102028.25
2023-02-15T07:25:42.877Z,102031.56
2023-02-15T07:27:44.864Z,102034.25
2023-02-15T07:29:47.743Z,102041.69
2023-02-15T07:31:49.333Z,102036.56
2023-02-15T07:33:50.894Z,102041.78
2023-02-15T07:35:54.848Z,102045.31
2023-02-15T07:37:56.465Z,102041.41
2023-02-15T07:39:58.127Z,102042.25
2023-02-15T07:42:00.795Z,102037.53
2023-02-15T07:44:02.454Z,102028.47
2023-02-15T07:46:07.162Z,102024.75
2023-02-15T07:48:08.699Z,102024.75
2023-02-15T07:50:10.454Z,102016.75
2023-02-15T07:52:11.995Z,102015.31
2023-02-15T07:54:13.544Z,102018.63
2023-02-15T07:56:16.348Z,102019.66
2023-02-15T07:58:17.939Z,102024.56
2023-02-15T08:00:21.375Z,102018.63
2023-02-15T08:02:24.315Z,102017.78
2023-02-15T08:04:25.892Z,102010.59
2023-02-15T08:06:29.044Z,102013.47
2023-02-15T08:08:30.994Z,102016.53
2023-02-15T08:10:34.084Z,102011.19
2023-02-15T08:12:35.694Z,102014.06
2023-02-15T08:14:37.220Z,102015.50
2023-02-15T08:16:41.029Z,102012.03
2023-02-15T08:18:44.000Z,102017.38
2023-02-15T08:20:50.236Z,102008.91
2023-02-15T08:22:51.733Z,102015.50
2023-02-15T08:24:53.253Z,102008.50
2023-02-15T08:26:55.071Z,102010.38
2023-02-15T08:28:56.728Z,102008.28
2023-02-15T08:31:05.433Z,102005.59
2023-02-15T08:33:06.999Z,102007.69
2023-02-15T08:35:09.868Z,102010.16
2023-02-15T08:37:11.446Z,102008.91
2023-02-15T08:39:14.218Z,102009.75
2023-02-15T08:41:18.188Z,102004.38
2023-02-15T08:43:19.786Z,102000.88
2023-02-15T08:45:21.418Z,102003.94
2023-02-15T08:47:22.960Z,102004.78
2023-02-15T08:49:24.583Z,102005.19
2023-02-15T08:51:29.990Z,102005.22
2023-02-15T08:53:31.560Z,101997.00
2023-02-15T08:55:33.187Z,102002.53
2023-02-15T08:57:34.725Z,101995.94
2023-02-15T08:59:36.444Z,101988.75
2023-02-15T09:01:38.087Z,101990.00
2023-02-15T09:03:40.371Z,101987.72
2023-02-15T09:05:41.950Z,101980.91
2023-02-15T09:07:47.193Z,101972.91
2023-02-15T09:09:48.814Z,101982.75
2023-02-15T09:11:56.864Z,101981.75
2023-02-15T09:14:02.529Z,101977.41
2023-02-15T09:16:07.017Z,101972.91
2023-02-15T09:18:08.641Z,101973.09
2023-02-15T09:20:10.710Z,101974.97
2023-02-15T09:22:12.407Z,101983.16
2023-02-15T09:24:17.386Z,101977.41
2023-02-15T09:26:20.411Z,101976.38
2023-02-15T09:28:22.137Z,101973.28
2023-02-15T09:30:23.769Z,101973.28
2023-02-15T09:32:25.553Z,101971.44
2023-02-15T09:34:27.137Z,101966.94
2023-02-15T09:36:30.470Z,101960.97
2023-02-15T09:38:32.133Z,101955.38
2023-02-15T09:40:43.225Z,101961.75
2023-02-15T09:43:02.151Z,101961.16
2023-02-15T09:45:27.420Z,101971.25
2023-02-15T09:47:53.724Z,101966.94
2023-02-15T09:50:02.600Z,101969.41
2023-02-15T09:52:24.889Z,101977.00
2023-02-15T09:54:38.557Z,101977.41
2023-02-15T09:56:49.054Z,101971.66
2023-02-15T09:58:59.780Z,101971.44
2023-02-15T10:01:09.362Z,101974.09
2023-02-15T10:03:35.015Z,101985.66
2023-02-15T10:05:46.824Z,101980.94
2023-02-15T10:08:18.386Z,101976.00
2023-02-15T10:10:28.666Z,101980.31
2023-02-15T10:12:57.500Z,101974.72
2023-02-15T10:15:26.707Z,101975.53
2023-02-15T10:17:51.467Z,101981.50
2023-02-15T10:20:04.761Z,101980.69
2023-02-15T10:22:20.534Z,101984.16
2023-02-15T10:24:42.108Z,101983.97
2023-02-15T10:26:47.289Z,101992.81
2023-02-15T10:28:52.181Z,102004.13
2023-02-15T10:31:03.803Z,102000.22
2023-02-15T10:33:15.218Z,102004.94
2023-02-15T10:35:25.637Z,102002.06
2023-02-15T10:37:47.550Z,102004.13
2023-02-15T10:39:59.628Z,101992.81
2023-02-15T10:42:11.852Z,102001.06
2023-02-15T10:44:28.715Z,101992.81
2023-02-15T10:46:56.698Z,101992.78
2023-02-15T10:49:24.219Z,102000.41
2023-02-15T10:51:37.193Z,101991.94
2023-02-15T10:54:02.325Z,101992.16
2023-02-15T10:56:13.171Z,101983.50
2023-02-15T10:58:23.605Z,101991.94
2023-02-15T11:00:38.372Z,101998.28
2023-02-15T11:02:54.754Z,101986.34
2023-02-15T11:05:03.951Z,101993.94
2023-02-15T11:07:12.524Z,101984.06
2023-02-15T11:09:15.322Z,101984.06
2023-02-15T11:11:22.440Z,101974.59
2023-02-15T11:13:28.888Z,101973.34
2023-02-15T11:15:36.275Z,101972.09
2023-02-15T11:17:42.394Z,101969.19
2023-02-15T11:19:53.867Z,101961.16
2023-02-15T11:22:00.136Z,101958.72
2023-02-15T11:24:01.779Z,101956.66
2023-02-15T11:26:07.106Z,101951.47
2023-02-15T11:28:18.096Z,101944.94
2023-02-15T11:30:22.498Z,101947.63
2023-02-15T11:32:29.183Z,101935.66
2023-02-15T11:34:35.553Z,101925.94
2023-02-15T11:36:41.125Z,101929.63
2023-02-15T11:38:42.719Z,101928.38
2023-02-15T11:40:49.492Z,101927.97
2023-02-15T11:42:54.561Z,101923.03
2023-02-15T11:45:03.248Z,101925.69
2023-02-15T11:47:11.179Z,101917.66
2023-02-15T11:49:23.643Z,101926.09
2023-02-15T11:51:26.497Z,101928.94
2023-02-15T11:53:32.915Z,101924.41
2023-02-15T11:55:34.481Z,101927.13
2023-02-15T11:57:40.077Z,101923.41
2023-02-15T11:59:47.381Z,101924.03
2023-02-15T12:01:49.045Z,101914.75
2023-02-15T12:03:53.306Z,101913.53
2023-02-15T12:06:01.196Z,101909.03
2023-02-15T12:08:10.339Z,101901.16
2023-02-15T12:10:21.122Z,101905.34
2023-02-15T12:12:25.791Z,101903.44
2023-02-15T12:14:32.090Z,101900.75
2023-02-15T12:16:41.564Z,101887.38
2023-02-15T12:18:45.800Z,101892.31
2023-02-15T12:20:47.698Z,101888.13
2023-02-15T12:22:54.026Z,101892.03
2023-02-15T12:24:57.747Z,101889.16
2023-02-15T12:27:03.715Z,101890.34
2023-02-15T12:29:13.999Z,101883.13
2023-02-15T12:31:22.988Z,101880.19
2023-02-15T12:33:30.695Z,101877.91
2023-02-15T12:35:34.509Z,101874.22
2023-02-15T12:37:36.244Z,101873.56
2023-02-15T12:39:53.065Z,101873.63
2023-02-15T12:42:02.770Z,101876.03
2023-02-15T12:44:07.452Z,101867.56
2023-02-15T12:46:29.847Z,101865.69
2023-02-15T12:48:31.512Z,101867.56
2023-02-15T12:50:36.239Z,101862.81
2023-02-15T12:52:37.879Z,101860.56
2023-02-15T12:54:42.836Z,101867.97
2023-02-15T12:56:44.497Z,101866.75
2023-02-15T12:58:46.101Z,101864.81
2023-02-15T13:00:47.985Z,101853.69
2023-02-15T13:02:52.462Z,101860.03
2023-02-15T13:04:56.279Z,101852.59
2023-02-15T13:07:02.021Z,101852.13
2023-02-15T13:09:15.896Z,101845.91
2023-02-15T13:11:25.680Z,101849.19
2023-02-15T13:13:29.742Z,101843.16
2023-02-15T13:15:36.397Z,101840.00
2023-02-15T13:17:37.994Z,101838.53
2023-02-15T13:19:43.081Z,101850.91
2023-02-15T13:21:47.096Z,101846.94
2023-02-15T13:23:52.987Z,101835.78
2023-02-15T13:25:56.649Z,101835.56
2023-02-15T13:28:03.214Z,101828.72
2023-02-15T13:30:17.644Z,101828.03
2023-02-15T13:32:27.676Z,101824.16
2023-02-15T13:34:33.881Z,101820.63
2023-02-15T13:36:42.144Z,101823.69
2023-02-15T13:38:50.149Z,101818.56
2023-02-15T13:40:56.229Z,101815.19
2023-02-15T13:43:11.382Z,101809.75
2023-02-15T13:45:28.255Z,101796.47
2023-02-15T13:47:39.098Z,101801.63
2023-02-15T13:49:53.350Z,101789.38
2023-02-15T13:52:05.380Z,101796.38
2023-02-15T13:54:33.511Z,101790.22
2023-02-15T13:56:47.938Z,101792.06
2023-02-15T13:59:30.045Z,101785.56
2023-02-15T14:01:38.909Z,101784.28
2023-02-15T14:04:10.922Z,101781.16
2023-02-15T14:06:46.837Z,101779.06
2023-02-15T14:09:02.832Z,101781.75
2023-02-15T14:11:13.385Z,101779.06
2023-02-15T14:13:50.278Z,101770.41
2023-02-15T14:15:57.834Z,101764.97
2023-02-15T14:18:10.242Z,101773.38
2023-02-15T14:20:22.855Z,101776.41
2023-02-15T14:22:32.511Z,101776.22
2023-02-15T14:24:40.395Z,101777.63
2023-02-15T14:26:50.973Z,101776.41
2023-02-15T14:29:04.416Z,101774.22
2023-02-15T14:31:12.175Z,101770.25
2023-02-15T14:33:36.871Z,101773.28
2023-02-15T14:35:41.028Z,101768.16
2023-02-15T14:37:46.839Z,101776.91
2023-02-15T14:39:56.638Z,101771.28
2023-02-15T14:42:03.492Z,101766.97
2023-02-15T14:44:13.890Z,101761.16
2023-02-15T14:46:26.502Z,101759.88
2023-02-15T14:48:34.213Z,101756.38
2023-02-15T14:50:43.332Z,101759.88
2023-02-15T14:53:16.389Z,101758.38
2023-02-15T14:55:35.849Z,101750.75
2023-02-15T14:57:37.739Z,101755.09
2023-02-15T14:59:43.884Z,101743.06
2023-02-15T15:01:57.731Z,101743.91
2023-02-15T15:04:03.271Z,101743.31
2023-02-15T15:06:06.257Z,101740.03
2023-02-15T15:08:26.312Z,101744.34
2023-02-15T15:10:39.952Z,101744.81
2023-02-15T15:12:41.628Z,101745.41
2023-02-15T15:14:43.982Z,101751.97
2023-02-15T15:16:51.430Z,101741.44
2023-02-15T15:18:54.479Z,101747.28
2023-02-15T15:20:56.363Z,101743.16
2023-02-15T15:23:31.166Z,101744.34
2023-02-15T15:25:44.292Z,101748.69
2023-02-15T15:27:51.452Z,101745.63
2023-02-15T15:29:53.142Z,101737.44
2023-02-15T15:32:00.036Z,101750.41
2023-02-15T15:34:50.180Z,101744.44
2023-02-15T15:37:27.689Z,101749.22
2023-02-15T15:40:04.500Z,101754.00
2023-02-15T15:42:14.068Z,101752.94
2023-02-15T15:44:59.968Z,101747.94
2023-02-15T15:47:25.286Z,101747.72
2023-02-15T15:49:31.378Z,101753.91
2023-02-15T15:51:34.514Z,101752.84
2023-02-15T15:53:40.762Z,101756.59
2023-02-15T15:55:47.745Z,101751.22
2023-02-15T15:57:53.038Z,101757.06
2023-02-15T15:59:55.830Z,101754.38
2023-02-15T16:02:04.371Z,101753.53
2023-02-15T16:04:06.073Z,101754.59
2023-02-15T16:06:14.354Z,101756.91
2023-02-15T16:08:30.788Z,101751.78
2023-02-15T16:10:34.359Z,101760.03
2023-02-15T16:12:40.487Z,101764.59
2023-02-15T16:14:43.181Z,101761.56
2023-02-15T16:16:50.417Z,101752.31
2023-02-15T16:18:52.985Z,101757.53
2023-02-15T16:20:56.366Z,101758.56
2023-02-15T16:23:10.574Z,101765.22
2023-02-15T16:25:30.556Z,101768.59
2023-02-15T16:27:41.315Z,101760.78
2023-02-15T16:29:43.035Z,101768.91
2023-02-15T16:31:56.765Z,101767.72
2023-02-15T16:33:58.374Z,101769.00
2023-02-15T16:36:00.636Z,101771.72
2023-02-15T16:38:02.987Z,101775.31
2023-02-15T16:40:05.653Z,101772.47
2023-02-15T16:42:07.533Z,101774.19
2023-02-15T16:44:17.027Z,101771.81
2023-02-15T16:46:24.486Z,101777.97
2023-02-15T16:48:27.441Z,101771.50
2023-02-15T16:50:33.768Z,101769.63
2023-02-15T16:52:35.509Z,101766.81
2023-02-15T16:54:37.520Z,101768.50
2023-02-15T16:56:39.141Z,101777.72
2023-02-15T16:58:43.908Z,101774.44
2023-02-15T17:00:47.193Z,101775.50
2023-02-15T17:02:58.734Z,101783.75
2023-02-15T17:05:14.572Z,101779.88
2023-02-15T17:07:18.323Z,101771.47
2023-02-15T17:09:21.419Z,101775.03
2023-02-15T17:11:33.689Z,101767.19
2023-02-15T17:13:35.509Z,101774.19
2023-02-15T17:15:38.429Z,101775.25
2023-02-15T17:17:41.511Z,101767.44
2023-02-15T17:19:49.378Z,101766.63
2023-02-15T17:21:53.930Z,101767.66
2023-02-15T17:23:59.281Z,101764.81
2023-02-15T17:26:11.487Z,101767.34
2023-02-15T17:28:18.773Z,101764.66
2023-02-15T17:30:27.805Z,101766.13
2023-02-15T17:32:33.142Z,101773.13
2023-02-15T17:34:49.730Z,101764.66
2023-02-15T17:36:59.231Z,101766.34
2023-02-15T17:39:05.608Z,101768.56
2023-02-15T17:41:08.295Z,101776.84
2023-02-15T17:43:10.084Z,101772.97
2023-02-15T17:45:13.654Z,101777.69
2023-02-15T17:47:21.353Z,101780.59
2023-02-15T17:49:25.672Z,101776.34
2023-02-15T17:51:28.764Z,101775.53
2023-02-15T17:53:30.967Z,101783.78
2023-02-15T17:55:32.543Z,101785.91
2023-02-15T17:57:34.119Z,101782.66
2023-02-15T17:59:35.702Z,101784.75
2023-02-15T18:01:42.913Z,101791.09
2023-02-15T18:03:48.520Z,101785.53
2023-02-15T18:05:50.261Z,101778.72
2023-02-15T18:07:53.190Z,101778.53
2023-02-15T18:09:55.053Z,101778.53
2023-02-15T18:11:57.182Z,101781.22
2023-02-15T18:13:59.090Z,101769.66
2023-02-15T18:16:00.702Z,101765.94
2023-02-15T18:18:02.502Z,101763.13
2023-02-15T18:20:07.306Z,101767.88
2023-02-15T18:22:10.957Z,101765.81
2023-02-15T18:24:20.048Z,101770.75
2023-02-15T18:26:24.465Z,101768.91
2023-02-15T18:28:26.251Z,101766.00
2023-02-15T18:30:28.056Z,101772.63
2023-02-15T18:32:35.164Z,101763.31
2023-02-15T18:34:39.750Z,101760.44
2023-02-15T18:36:44.874Z,101767.88
2023-02-15T18:38:46.484Z,101764.59
2023-02-15T18:40:49.765Z,101767.06
2023-02-15T18:42:51.568Z,101769.16
2023-02-15T18:44:56.401Z,101772.22
2023-02-15T18:46:58.151Z,101777.13
2023-02-15T18:48:59.692Z,101779.63
2023-02-15T18:51:01.900Z,101778.66
2023-02-15T18:53:04.880Z,101784.63
2023-02-15T18:55:16.756Z,101779.00
2023-02-15T18:57:19.983Z,101779.66
2023-02-15T18:59:22.215Z,101772.28
2023-02-15T19:01:23.779Z,101768.59
2023-02-15T19:03:25.402Z,101771.88
2023-02-15T19:05:29.321Z,101767.75
2023-02-15T19:07:32.373Z,101764.28
2023-02-15T19:09:33.999Z,101767.19
2023-02-15T19:11:35.584Z,101752.97
2023-02-15T19:13:38.445Z,101754.84
2023-02-15T19:15:41.160Z,101753.19
2023-02-15T19:17:42.814Z,101749.47
2023-02-15T19:19:44.911Z,101746.59
2023-02-15T19:21:46.710Z,101742.25
2023-02-15T19:23:54.148Z,101744.91
2023-02-15T19:25:55.886Z,101742.03
2023-02-15T19:27:58.497Z,101738.56
2023-02-15T19:30:04.000Z,101738.56
2023-02-15T19:32:05.755Z,101735.00
2023-02-15T19:34:15.024Z,101735.06
2023-02-15T19:36:18.078Z,101739.78
2023-02-15T19:38:22.320Z,101728.22
2023-02-15T19:40:26.785Z,101738.56
2023-02-15T19:42:29.078Z,101737.13
2023-02-15T19:44:30.710Z,101740.47
2023-02-15T19:46:33.703Z,101737.97
2023-02-15T19:48:35.306Z,101734.50
2023-02-15T19:50:36.984Z,101734.31
2023-02-15T19:52:38.782Z,101743.97
2023-02-15T19:54:40.445Z,101737.00
2023-02-15T19:56:42.011Z,101743.19
2023-02-15T19:58:43.574Z,101742.75
2023-02-15T20:00:46.235Z,101748.75
2023-02-15T20:02:49.380Z,101744.66
2023-02-15T20:04:50.985Z,101752.91
2023-02-15T20:06:55.801Z,101760.34
2023-02-15T20:08:57.455Z,101749.66
2023-02-15T20:10:59.109Z,101747.22
2023-02-15T20:13:01.480Z,101757.06
2023-02-15T20:15:17.675Z,101746.63
2023-02-15T20:17:19.493Z,101740.84
2023-02-15T20:19:22.586Z,101748.03
2023-02-15T20:21:24.154Z,101747.66
2023-02-15T20:23:30.874Z,101743.19
2023-02-15T20:25:33.384Z,101739.03
2023-02-15T20:27:34.915Z,101739.84
2023-02-15T20:29:36.452Z,101739.22
2023-02-15T20:31:38.213Z,101741.09
2023-02-15T20:33:39.806Z,101741.91
2023-02-15T20:35:44.105Z,101737.19
2023-02-15T20:37:47.712Z,101740.91
2023-02-15T20:39:50.550Z,101745.25
2023-02-15T20:41:52.196Z,101741.34
2023-02-15T20:43:53.866Z,101741.38
2023-02-15T20:45:55.499Z,101750.63
2023-02-15T20:47:57.675Z,101750.25
2023-02-15T20:49:59.326Z,101750.44
2023-02-15T20:52:03.600Z,101744.44
2023-02-15T20:54:12.281Z,101747.34
2023-02-15T20:56:17.951Z,101756.38
2023-02-15T20:58:22.306Z,101750.03
2023-02-15T21:00:29.038Z,101760.72
2023-02-15T21:02:30.885Z,101753.94
2023-02-15T21:04:33.753Z,101763.63
2023-02-15T21:06:35.304Z,101764.66
2023-02-15T21:08:38.464Z,101760.97
2023-02-15T21:10:41.056Z,101762.59
2023-02-15T21:12:43.764Z,101771.44
2023-02-15T21:14:45.855Z,101766.31
2023-02-15T21:16:48.697Z,101773.50
2023-02-15T21:18:50.414Z,101776.16
2023-02-15T21:20:54.615Z,101777.00
2023-02-15T21:22:59.144Z,101776.16
2023-02-15T21:25:02.841Z,101766.31
2023-02-15T21:27:06.835Z,101776.22
2023-02-15T21:29:13.176Z,101773.13
2023-02-15T21:31:16.887Z,101772.31
2023-02-15T21:33:19.444Z,101773.94
2023-02-15T21:35:21.039Z,101784.63
2023-02-15T21:37:29.459Z,101781.94
2023-02-15T21:39:35.455Z,101778.88
2023-02-15T21:41:38.551Z,101771.66
2023-02-15T21:43:40.059Z,101763.47
2023-02-15T21:45:41.648Z,101757.72
2023-02-15T21:47:43.242Z,101759.56
2023-02-15T21:49:44.805Z,101757.31
2023-02-15T21:51:48.079Z,101763.06
2023-02-15T21:53:49.786Z,101766.97
2023-02-15T21:55:53.203Z,101763.25
2023-02-15T21:57:56.120Z,101757.28
2023-02-15T21:59:57.601Z,101756.25
2023-02-15T22:01:59.221Z,101757.31
2023-02-15T22:04:00.816Z,101770.66
2023-02-15T22:06:03.538Z,101772.72
2023-02-15T22:08:10.949Z,101775.38
2023-02-15T22:10:12.707Z,101767.75
2023-02-15T22:12:16.108Z,101768.41
2023-02-15T22:14:34.650Z,101767.38
2023-02-15T22:16:37.451Z,101771.47
2023-02-15T22:18:39.029Z,101779.06
2023-02-15T22:20:40.608Z,101774.16
2023-02-15T22:22:42.154Z,101770.84
2023-02-15T22:24:44.482Z,101766.94
2023-02-15T22:26:46.225Z,101765.13
2023-02-15T22:28:48.296Z,101767.59
2023-02-15T22:30:51.447Z,101772.13
2023-02-15T22:32:53.316Z,101758.13
2023-02-15T22:34:55.127Z,101761.63
2023-02-15T22:36:57.580Z,101762.22
2023-02-15T22:38:59.151Z,101758.75
2023-02-15T22:41:03.867Z,101759.38
2023-02-15T22:43:10.853Z,101762.66
2023-02-15T22:45:17.196Z,101763.06
2023-02-15T22:47:22.906Z,101761.44
2023-02-15T22:49:24.540Z,101751.56
2023-02-15T22:51:26.297Z,101763.06
2023-02-15T22:53:27.930Z,101755.25
2023-02-15T22:55:32.475Z,101763.88
2023-02-15T22:57:38.378Z,101757.31
2023-02-15T22:59:40.234Z,101756.72
2023-02-15T23:01:41.911Z,101763.47
2023-02-15T23:03:44.940Z,101764.28
2023-02-15T23:05:46.736Z,101763.88
2023-02-15T23:07:49.412Z,101758.53
2023-02-15T23:09:51.000Z,101763.28
2023-02-15T23:11:53.846Z,101755.69
2023-02-15T23:13:55.532Z,101763.06
2023-02-15T23:15:58.837Z,101762.25
2023-02-15T23:18:14.990Z,101757.72
2023-02-15T23:20:18.168Z,101760.81
2023-02-15T23:22:19.750Z,101756.91
2023-02-15T23:24:23.023Z,101755.91
2023-02-15T23:26:26.103Z,101743.97
2023-02-15T23:28:30.312Z,101749.31
2023-02-15T23:30:31.982Z,101754.44
2023-02-15T23:32:33.612Z,101748.28
2023-02-15T23:34:35.310Z,101734.72
2023-02-15T23:36:41.148Z,101738.84
2023-02-15T23:38:42.878Z,101745.38
2023-02-15T23:40:48.633Z,101749.88
2023-02-15T23:42:50.289Z,101749.06
2023-02-15T23:44:52.130Z,101742.25
2023-02-15T23:46:53.775Z,101739.59
2023-02-15T23:48:56.515Z,101735.50
2023-02-15T23:50:58.731Z,101737.38
2023-02-15T23:53:01.709Z,101736.72
2023-02-15T23:55:03.298Z,101742.47